createdAt,value
2019-05-13T00:02:17.453Z,100.00
2019-05-13T00:04:48.932Z,99.96
2019-05-13T00:07:20.298Z,99.93
2019-05-13T00:09:51.684Z,99.84
2019-05-13T00:12:23.981Z,99.80
2019-05-13T00:14:55.661Z,99.73
2019-05-13T00:17:27.021Z,99.88
2019-05-13T00:19:58.606Z,99.89
2019-05-13T00:22:29.891Z,99.84
2019-05-13T00:25:03.838Z,99.91
2019-05-13T00:27:34.254Z,100.00
2019-05-13T00:30:07.049Z,100.00
2019-05-13T00:32:38.343Z,100.00
2019-05-13T00:35:09.723Z,99.92
2019-05-13T00:37:44.037Z,99.69
2019-05-13T00:40:15.285Z,99.61
2019-05-13T00:42:46.586Z,99.61
2019-05-13T00:45:17.942Z,99.69
2019-05-13T00:47:49.232Z,99.71
2019-05-13T00:50:20.844Z,99.72
2019-05-13T00:52:53.647Z,99.73
2019-05-13T00:55:25.200Z,99.56
2019-05-13T00:57:56.483Z,99.74
2019-05-13T01:00:27.874Z,99.82
2019-05-13T01:02:59.156Z,99.85
2019-05-13T01:05:30.538Z,99.83
2019-05-13T01:08:04.095Z,99.90
2019-05-13T01:10:34.911Z,99.74
2019-05-13T01:13:06.191Z,99.78
2019-05-13T01:15:37.628Z,99.86
2019-05-13T01:18:10.199Z,100.00
2019-05-13T01:20:43.704Z,100.00
2019-05-13T01:23:15.791Z,100.00
2019-05-13T01:25:47.213Z,100.00
2019-05-13T01:28:18.539Z,99.98
2019-05-13T01:33:54.365Z,99.99
2019-05-13T01:36:25.717Z,99.80
2019-05-13T01:38:57.107Z,99.75
2019-05-13T01:41:30.443Z,99.75
2019-05-13T01:44:04.130Z,99.62
2019-05-13T01:46:36.606Z,99.64
2019-05-13T01:49:07.974Z,99.65
2019-05-13T01:51:40.293Z,99.68
2019-05-13T01:54:14.349Z,99.58
2019-05-13T01:56:46.868Z,99.62
2019-05-13T01:59:18.315Z,99.45
2019-05-13T02:01:50.704Z,99.60
2019-05-13T02:04:24.412Z,99.56
2019-05-13T02:06:55.344Z,99.52
2019-05-13T02:09:26.893Z,99.52
2019-05-13T02:11:58.180Z,99.28
2019-05-13T02:14:29.699Z,99.25
2019-05-13T02:17:00.998Z,99.24
2019-05-13T02:19:34.946Z,99.26
2019-05-13T02:22:06.357Z,99.01
2019-05-13T02:24:37.892Z,98.94
2019-05-13T02:27:09.219Z,98.98
2019-05-13T02:29:40.638Z,98.94
2019-05-13T02:32:13.713Z,99.16
2019-05-13T02:34:45.053Z,99.09
2019-05-13T02:37:16.339Z,98.96
2019-05-13T02:39:47.722Z,98.78
2019-05-13T02:42:22.583Z,98.91
2019-05-13T02:44:52.909Z,98.67
2019-05-13T02:47:24.571Z,98.50
2019-05-13T02:50:00.370Z,98.27
2019-05-13T02:52:28.975Z,98.10
2019-05-13T02:55:03.832Z,97.77
2019-05-13T02:57:33.530Z,97.78
2019-05-13T03:00:08.732Z,97.77
2019-05-13T03:02:43.290Z,97.63
2019-05-13T03:05:13.925Z,97.18
2019-05-13T03:07:45.441Z,96.61
2019-05-13T03:10:16.925Z,96.23
2019-05-13T03:12:48.209Z,95.51
2019-05-13T03:15:22.922Z,94.98
2019-05-13T03:17:54.199Z,94.60
2019-05-13T03:20:25.830Z,94.24
2019-05-13T03:22:57.265Z,93.18
2019-05-13T03:25:28.949Z,92.14
2019-05-13T03:28:03.110Z,91.30
2019-05-13T03:30:35.192Z,91.35
2019-05-13T03:33:10.850Z,90.79
2019-05-13T03:35:44.777Z,90.74
2019-05-13T03:38:13.033Z,91.26
2019-05-13T03:40:44.489Z,90.70
2019-05-13T03:43:16.712Z,90.11
2019-05-13T03:45:48.173Z,89.99
2019-05-13T03:48:23.623Z,90.60
2019-05-13T03:50:54.430Z,89.71
2019-05-13T03:53:25.837Z,89.47
2019-05-13T03:55:57.247Z,88.63
2019-05-13T03:58:32.152Z,88.99
2019-05-13T04:01:02.840Z,88.34
2019-05-13T04:03:34.438Z,88.16
2019-05-13T04:06:05.846Z,87.57
2019-05-13T04:08:37.263Z,87.54
2019-05-13T04:11:12.311Z,87.23
2019-05-13T04:13:43.094Z,87.06
2019-05-13T04:16:14.896Z,87.12
2019-05-13T04:18:46.770Z,87.11
2019-05-13T04:21:18.644Z,87.07
2019-05-13T04:23:53.111Z,86.67
2019-05-13T04:26:24.206Z,85.57
2019-05-13T04:28:55.693Z,84.56
2019-05-13T04:31:27.369Z,82.95
2019-05-13T04:34:02.029Z,81.44
2019-05-13T04:36:32.211Z,81.56
2019-05-13T04:39:05.353Z,80.47
2019-05-13T04:41:36.814Z,79.12
2019-05-13T04:44:08.221Z,79.20
2019-05-13T04:46:43.202Z,76.63
2019-05-13T04:49:13.241Z,74.88
2019-05-13T04:51:44.780Z,74.88
2019-05-13T04:54:16.332Z,75.50
2019-05-13T04:56:47.844Z,73.54
2019-05-13T04:59:22.434Z,73.22
2019-05-13T05:02:18.118Z,72.99
2019-05-13T05:04:53.593Z,72.10
2019-05-13T05:07:42.092Z,72.63
2019-05-13T05:10:38.705Z,71.41
2019-05-13T05:13:27.706Z,71.69
2019-05-13T05:16:13.792Z,72.32
2019-05-13T05:19:04.720Z,71.92
2019-05-13T05:21:55.445Z,71.32
2019-05-13T05:24:36.446Z,71.01
2019-05-13T05:27:35.279Z,71.54
2019-05-13T05:30:26.090Z,71.38
2019-05-13T05:33:21.588Z,71.93
2019-05-13T05:36:16.801Z,72.33
2019-05-13T05:39:12.349Z,72.46
2019-05-13T05:41:43.697Z,70.98
2019-05-13T05:44:15.120Z,71.09
2019-05-13T05:46:46.661Z,71.20
2019-05-13T05:49:18.051Z,70.64
2019-05-13T05:51:51.484Z,69.70
2019-05-13T05:54:22.760Z,69.59
2019-05-13T05:56:54.707Z,69.24
2019-05-13T05:59:26.065Z,68.51
2019-05-13T06:01:57.582Z,66.51
2019-05-13T06:04:32.445Z,65.28
2019-05-13T06:07:04.857Z,64.33
2019-05-13T06:09:36.368Z,61.52
2019-05-13T06:12:07.896Z,61.47
2019-05-13T06:14:39.308Z,60.80
2019-05-13T06:17:11.758Z,59.43
2019-05-13T06:19:43.207Z,58.87
2019-05-13T06:22:14.715Z,60.03
2019-05-13T06:24:46.315Z,58.85
2019-05-13T06:27:17.839Z,57.22
2019-05-13T06:29:52.531Z,57.06
2019-05-13T06:32:26.225Z,56.51
2019-05-13T06:34:55.524Z,53.51
2019-05-13T06:37:27.041Z,53.05
2019-05-13T06:39:58.615Z,51.08
2019-05-13T06:42:32.471Z,48.22
2019-05-13T06:45:03.447Z,46.27
2019-05-13T06:47:36.344Z,42.86
2019-05-13T06:50:07.909Z,40.91
2019-05-13T06:52:39.489Z,36.97
2019-05-13T06:55:35.052Z,34.93
2019-05-13T06:58:06.760Z,34.93
2019-05-13T07:00:38.200Z,35.45
2019-05-13T07:03:11.968Z,38.35
2019-05-13T07:05:45.451Z,39.78
2019-05-13T07:08:16.851Z,38.08
2019-05-13T07:10:48.363Z,37.91
2019-05-13T07:13:21.793Z,36.00
2019-05-13T07:15:53.354Z,36.08
2019-05-13T07:18:24.871Z,37.89
2019-05-13T07:20:56.294Z,38.85
2019-05-13T07:23:27.743Z,41.19
2019-05-13T07:26:01.793Z,44.37
2019-05-13T07:28:33.648Z,44.46
2019-05-13T07:31:05.073Z,44.37
2019-05-13T07:33:36.682Z,42.33
2019-05-13T07:36:08.232Z,40.32
2019-05-13T07:38:41.543Z,39.78
2019-05-13T07:41:13.057Z,37.92
2019-05-13T07:43:44.714Z,39.20
2019-05-13T07:46:16.144Z,39.68
2019-05-13T07:48:47.646Z,38.88
2019-05-13T07:51:19.008Z,38.58
2019-05-13T07:53:51.819Z,39.02
2019-05-13T07:56:22.792Z,35.68
2019-05-13T07:58:54.022Z,33.31
2019-05-13T08:01:25.471Z,31.06
2019-05-13T08:03:57.028Z,30.64
2019-05-13T08:06:28.480Z,30.85
2019-05-13T08:09:01.657Z,30.83
2019-05-13T08:11:36.889Z,29.08
2019-05-13T08:14:07.402Z,27.65
2019-05-13T08:16:38.852Z,28.32
2019-05-13T08:19:12.283Z,31.25
2019-05-13T08:21:43.548Z,32.84
2019-05-13T08:24:15.262Z,33.34
2019-05-13T08:26:49.883Z,34.09
2019-05-13T08:29:21.499Z,31.73
2019-05-13T08:31:52.082Z,29.63
2019-05-13T08:34:23.661Z,29.39
2019-05-13T08:36:55.846Z,28.05
2019-05-13T08:39:33.465Z,28.14
2019-05-13T08:42:15.638Z,31.15
2019-05-13T08:44:35.101Z,31.72
2019-05-13T08:47:06.122Z,30.54
2019-05-13T08:49:37.815Z,28.32
2019-05-13T08:52:11.855Z,27.30
2019-05-13T08:54:42.355Z,26.20
2019-05-13T08:57:13.763Z,30.65
2019-05-13T08:59:45.509Z,31.76
2019-05-13T09:02:16.841Z,29.30
2019-05-13T09:04:48.391Z,28.88
2019-05-13T09:07:23.894Z,30.26
2019-05-13T09:09:53.114Z,30.64
2019-05-13T09:12:31.947Z,30.58
2019-05-13T09:14:59.146Z,29.63
2019-05-13T09:17:31.865Z,27.98
2019-05-13T09:20:04.808Z,28.92
2019-05-13T09:22:36.126Z,29.48
2019-05-13T09:25:08.077Z,31.69
2019-05-13T09:27:42.317Z,33.60
2019-05-13T09:30:13.156Z,33.06
2019-05-13T09:32:44.590Z,33.76
2019-05-13T09:35:15.999Z,35.34
2019-05-13T09:37:47.377Z,37.25
2019-05-13T09:40:18.998Z,37.73
2019-05-13T09:42:54.461Z,36.20
2019-05-13T09:45:23.847Z,33.32
2019-05-13T09:47:55.241Z,33.96
2019-05-13T09:50:32.185Z,34.60
2019-05-13T09:53:02.518Z,37.13
2019-05-13T09:55:33.069Z,38.77
2019-05-13T09:58:05.699Z,38.08
2019-05-13T10:00:36.921Z,39.51
2019-05-13T10:03:13.563Z,39.35
2019-05-13T10:05:43.806Z,42.35
2019-05-13T10:08:15.105Z,47.33
2019-05-13T10:10:46.718Z,46.23
2019-05-13T10:13:18.050Z,44.88
2019-05-13T10:15:49.706Z,49.67
2019-05-13T10:18:21.884Z,48.68
2019-05-13T10:21:02.096Z,48.67
2019-05-13T10:23:33.628Z,48.61
2019-05-13T10:26:07.686Z,48.65
2019-05-13T10:28:39.220Z,48.97
2019-05-13T10:31:12.006Z,49.20
2019-05-13T10:33:43.508Z,50.22
2019-05-13T10:36:15.143Z,50.70
2019-05-13T10:38:48.929Z,51.03
2019-05-13T10:41:22.222Z,52.72
2019-05-13T10:43:53.387Z,52.52
2019-05-13T10:46:25.636Z,51.23
2019-05-13T10:48:57.009Z,50.33
2019-05-13T10:51:28.583Z,50.19
2019-05-13T10:54:00.043Z,48.14
2019-05-13T10:56:32.816Z,47.96
2019-05-13T10:59:04.402Z,48.70
2019-05-13T11:01:37.435Z,48.03
2019-05-13T11:06:41.800Z,47.61
2019-05-13T11:09:13.416Z,47.63
2019-05-13T11:11:44.854Z,46.95
2019-05-13T11:14:16.223Z,48.13
2019-05-13T11:16:47.715Z,49.21
2019-05-13T11:19:19.028Z,49.63
2019-05-13T11:21:52.470Z,50.81
2019-05-13T11:24:23.831Z,51.37
2019-05-13T11:26:55.812Z,49.30
2019-05-13T11:29:27.478Z,47.25
2019-05-13T11:31:59.094Z,45.72
2019-05-13T11:34:32.955Z,45.33
2019-05-13T11:37:03.983Z,46.34
2019-05-13T11:39:35.466Z,43.95
2019-05-13T11:42:07.319Z,44.22
2019-05-13T11:44:38.792Z,43.45
2019-05-13T11:47:12.759Z,42.98
2019-05-13T11:49:43.855Z,41.53
2019-05-13T11:52:15.442Z,41.75
2019-05-13T11:54:46.764Z,42.35
2019-05-13T11:57:18.225Z,42.20
2019-05-13T11:59:52.463Z,41.58
2019-05-13T12:02:23.418Z,41.24
2019-05-13T12:04:55.922Z,42.17
2019-05-13T12:07:27.522Z,42.82
2019-05-13T12:09:59.117Z,42.10
2019-05-13T12:12:34.438Z,42.91
2019-05-13T12:15:27.159Z,44.93
2019-05-13T12:17:43.108Z,47.93
2019-05-13T12:20:16.281Z,49.66
2019-05-13T12:22:48.309Z,51.44
2019-05-13T12:25:22.417Z,55.56
2019-05-13T12:27:53.013Z,62.73
2019-05-13T12:30:24.696Z,74.63
2019-05-13T12:32:56.396Z,78.46
2019-05-13T12:35:28.037Z,80.19
2019-05-13T12:37:59.802Z,81.84
2019-05-13T12:40:33.882Z,82.25
2019-05-13T12:43:07.361Z,85.38
2019-05-13T12:45:43.196Z,86.25
2019-05-13T12:48:16.194Z,81.37
2019-05-13T12:50:47.730Z,83.20
2019-05-13T12:53:22.123Z,79.59
2019-05-13T12:55:57.343Z,78.07
2019-05-13T12:58:33.988Z,78.45
2019-05-13T13:01:03.040Z,74.25
2019-05-13T13:03:34.887Z,69.92
2019-05-13T13:08:44.662Z,73.71
2019-05-13T13:11:17.096Z,66.67
2019-05-13T13:13:59.788Z,69.12
2019-05-13T13:16:23.891Z,68.78
2019-05-13T13:18:56.182Z,64.73
2019-05-13T13:21:36.849Z,65.29
2019-05-13T13:24:04.470Z,65.17
2019-05-13T13:26:35.875Z,62.72
2019-05-13T13:29:07.763Z,64.25
2019-05-13T13:31:43.246Z,62.20
2019-05-13T13:34:17.940Z,65.54
2019-05-13T13:36:46.693Z,64.04
2019-05-13T13:39:18.508Z,65.70
2019-05-13T13:41:53.418Z,66.83
2019-05-13T13:44:24.508Z,65.77
2019-05-13T13:46:56.117Z,65.52
2019-05-13T13:49:27.604Z,65.53
2019-05-13T13:51:59.169Z,65.02
2019-05-13T13:54:33.561Z,64.72
2019-05-13T13:57:03.763Z,65.96
2019-05-13T13:59:36.332Z,65.17
2019-05-13T14:02:07.861Z,65.28
2019-05-13T14:04:39.289Z,65.30
2019-05-13T14:06:26.943Z,46.69
2019-05-13T14:07:28.111Z,62.73
2019-05-13T14:09:43.968Z,63.43
2019-05-13T14:12:16.335Z,61.48
2019-05-13T14:14:47.990Z,64.31
2019-05-13T14:17:21.819Z,62.32
2019-05-13T14:19:52.955Z,64.19
2019-05-13T14:22:24.941Z,64.74
2019-05-13T14:24:56.530Z,63.43
2019-05-13T14:27:27.826Z,63.67
2019-05-13T14:30:01.320Z,63.20
2019-05-13T14:32:33.281Z,64.29
2019-05-13T14:35:08.894Z,63.05
2019-05-13T14:37:41.197Z,64.49
2019-05-13T14:40:14.256Z,65.44
2019-05-13T14:42:47.034Z,63.93
2019-05-13T14:45:23.510Z,64.45
2019-05-13T14:47:54.570Z,66.66
2019-05-13T14:50:26.861Z,65.34
2019-05-13T14:52:58.672Z,64.49
2019-05-13T14:55:32.043Z,66.52
2019-05-13T14:58:03.556Z,65.00
2019-05-13T15:00:35.178Z,64.53
2019-05-13T15:03:06.620Z,67.10
2019-05-13T15:05:38.551Z,66.44
2019-05-13T15:08:10.408Z,67.93
2019-05-13T15:10:42.563Z,68.04
2019-05-13T15:13:18.657Z,68.84
2019-05-13T15:15:51.661Z,70.52
2019-05-13T15:18:23.599Z,70.09
2019-05-13T15:20:55.456Z,69.37
2019-05-13T15:23:27.354Z,68.43
2019-05-13T15:25:59.310Z,70.09
2019-05-13T15:28:31.872Z,70.31
2019-05-13T15:31:03.918Z,70.21
2019-05-13T15:33:37.106Z,71.91
2019-05-13T15:36:11.923Z,72.39
2019-05-13T15:38:46.652Z,72.80
2019-05-13T15:41:20.553Z,74.29
2019-05-13T15:43:53.589Z,74.43
2019-05-13T15:46:25.611Z,76.01
2019-05-13T15:48:57.557Z,74.53
2019-05-13T15:51:31.428Z,75.04
2019-05-13T15:54:03.213Z,74.33
2019-05-13T15:56:35.219Z,73.00
2019-05-13T15:59:08.927Z,72.21
2019-05-13T16:01:41.501Z,71.83
2019-05-13T16:04:13.720Z,72.17
2019-05-13T16:06:45.452Z,72.84
2019-05-13T16:09:16.971Z,72.68
2019-05-13T16:11:48.681Z,72.97
2019-05-13T16:14:21.991Z,73.57
2019-05-13T16:16:54.083Z,74.78
2019-05-13T16:19:25.677Z,74.81
2019-05-13T16:21:57.374Z,74.95
2019-05-13T16:24:28.993Z,76.54
2019-05-13T16:27:02.511Z,76.04
2019-05-13T16:29:35.667Z,75.71
2019-05-13T16:32:07.729Z,76.19
2019-05-13T16:34:41.945Z,76.75
2019-05-13T16:37:12.916Z,77.09
2019-05-13T16:39:44.522Z,77.15
2019-05-13T16:42:16.465Z,76.46
2019-05-13T16:44:48.055Z,76.59
2019-05-13T16:47:21.291Z,76.73
2019-05-13T16:49:53.898Z,77.10
2019-05-13T16:52:25.402Z,77.15
2019-05-13T16:54:56.926Z,76.40
2019-05-13T16:57:28.720Z,75.31
2019-05-13T17:00:02.478Z,74.20
2019-05-13T17:02:35.800Z,74.47
2019-05-13T17:05:08.325Z,74.90
2019-05-13T17:07:42.210Z,75.63
2019-05-13T17:10:13.303Z,75.65
2019-05-13T17:12:44.833Z,76.36
2019-05-13T17:15:16.338Z,75.64
2019-05-13T17:17:47.979Z,75.38
2019-05-13T17:20:21.447Z,76.10
2019-05-13T17:22:53.063Z,76.74
2019-05-13T17:25:24.509Z,77.46
2019-05-13T17:27:56.122Z,77.92
2019-05-13T17:30:46.588Z,78.03
2019-05-13T17:33:18.783Z,78.08
2019-05-13T17:35:50.407Z,78.71
2019-05-13T17:38:21.956Z,79.29
2019-05-13T17:40:54.456Z,78.28
2019-05-13T17:43:26.369Z,79.54
2019-05-13T17:45:57.651Z,79.09
2019-05-13T17:48:30.241Z,79.85
2019-05-13T17:51:02.211Z,79.37
2019-05-13T17:53:34.887Z,80.49
2019-05-13T17:56:06.353Z,81.03
2019-05-13T17:58:37.940Z,81.01
2019-05-13T18:01:09.367Z,81.90
2019-05-13T18:03:41.253Z,82.54
2019-05-13T18:06:12.910Z,81.36
2019-05-13T18:08:44.549Z,81.71
2019-05-13T18:11:16.003Z,83.10
2019-05-13T18:13:47.670Z,82.49
2019-05-13T18:16:21.552Z,83.09
2019-05-13T18:18:52.454Z,84.60
2019-05-13T18:21:23.976Z,83.63
2019-05-13T18:23:55.744Z,82.23
2019-05-13T18:26:28.089Z,83.86
2019-05-13T18:29:01.939Z,83.85
2019-05-13T18:31:32.998Z,84.52
2019-05-13T18:34:04.729Z,85.48
2019-05-13T18:36:36.488Z,85.25
2019-05-13T18:39:09.340Z,85.36
2019-05-13T18:41:41.380Z,85.88
2019-05-13T18:44:13.144Z,85.13
2019-05-13T18:46:44.639Z,85.26
2019-05-13T18:49:16.519Z,85.62
2019-05-13T18:51:47.967Z,85.55
2019-05-13T18:54:19.537Z,85.27
2019-05-13T18:56:52.209Z,85.27
2019-05-13T18:59:24.006Z,85.37
2019-05-13T19:01:55.445Z,84.64
2019-05-13T19:04:26.979Z,84.61
2019-05-13T19:06:58.525Z,84.91
2019-05-13T19:09:31.111Z,84.59
2019-05-13T19:12:02.766Z,84.67
2019-05-13T19:14:34.451Z,84.88
2019-05-13T19:17:05.985Z,84.95
2019-05-13T19:19:37.687Z,84.51
2019-05-13T19:22:09.045Z,84.33
2019-05-13T19:24:41.668Z,85.18
2019-05-13T19:27:13.187Z,85.27
2019-05-13T19:29:44.999Z,86.38
2019-05-13T19:32:16.474Z,86.68
2019-05-13T19:34:48.394Z,86.60
2019-05-13T19:37:22.495Z,86.66
2019-05-13T19:39:53.788Z,85.69
2019-05-13T19:42:25.180Z,86.36
2019-05-13T19:44:56.953Z,85.90
2019-05-13T19:47:28.400Z,86.38
2019-05-13T19:50:02.251Z,86.63
2019-05-13T19:52:34.939Z,85.69
2019-05-13T19:55:07.463Z,85.68
2019-05-13T19:57:38.857Z,86.24
2019-05-13T20:00:13.969Z,85.78
2019-05-13T20:02:43.632Z,85.54
2019-05-13T20:05:15.244Z,85.11
2019-05-13T20:07:46.750Z,84.37
2019-05-13T20:10:18.516Z,85.04
2019-05-13T20:12:51.331Z,85.35
2019-05-13T20:15:23.087Z,85.86
2019-05-13T20:17:54.487Z,85.77
2019-05-13T20:20:26.052Z,86.24
2019-05-13T20:22:57.897Z,86.12
2019-05-13T20:25:31.238Z,85.51
2019-05-13T20:28:02.811Z,85.38
2019-05-13T20:30:34.429Z,84.83
2019-05-13T20:33:06.088Z,85.17
2019-05-13T20:35:37.991Z,84.21
2019-05-13T20:38:11.578Z,84.38
2019-05-13T20:40:42.901Z,84.19
2019-05-13T20:43:14.577Z,84.34
2019-05-13T20:45:46.189Z,84.57
2019-05-13T20:48:18.649Z,84.85
2019-05-13T20:50:51.954Z,85.30
2019-05-13T20:53:23.689Z,85.09
2019-05-13T20:55:55.361Z,85.85
2019-05-13T20:58:27.091Z,85.94
2019-05-13T21:00:58.886Z,86.98
2019-05-13T21:03:31.608Z,87.03
2019-05-13T21:06:04.641Z,87.51
2019-05-13T21:08:36.104Z,88.20
2019-05-13T21:11:07.674Z,88.88
2019-05-13T21:13:41.080Z,88.74
2019-05-13T21:16:12.283Z,88.80
2019-05-13T21:18:43.828Z,89.01
2019-05-13T21:21:15.355Z,89.05
2019-05-13T21:23:48.048Z,89.59
2019-05-13T21:26:19.489Z,89.68
2019-05-13T21:28:52.199Z,90.37
2019-05-13T21:31:23.954Z,90.83
2019-05-13T21:33:55.471Z,90.96
2019-05-13T21:36:28.139Z,90.93
2019-05-13T21:39:01.636Z,91.15
2019-05-13T21:41:34.879Z,91.50
2019-05-13T21:44:06.272Z,92.18
2019-05-13T21:46:37.805Z,92.65
2019-05-13T21:49:11.637Z,93.01
2019-05-13T21:51:42.303Z,93.13
2019-05-13T21:54:13.741Z,93.55
2019-05-13T21:56:46.863Z,93.53
2019-05-13T21:59:18.424Z,93.57
2019-05-13T22:01:52.099Z,94.12
2019-05-13T22:04:23.023Z,94.02
2019-05-13T22:06:54.526Z,94.42
2019-05-13T22:09:25.831Z,94.80
2019-05-13T22:11:57.289Z,95.03
2019-05-13T22:14:28.765Z,95.12
2019-05-13T22:17:01.534Z,95.11
2019-05-13T22:19:33.195Z,94.92
2019-05-13T22:22:08.014Z,95.15
2019-05-13T22:24:41.638Z,95.37
2019-05-13T22:27:13.266Z,95.40
2019-05-13T22:29:45.003Z,95.42
2019-05-13T22:32:16.600Z,95.55
2019-05-13T22:34:48.135Z,95.55
2019-05-13T22:37:20.146Z,95.68
2019-05-13T22:39:51.546Z,96.03
2019-05-13T22:42:22.991Z,96.14
2019-05-13T22:44:54.391Z,96.61
2019-05-13T22:47:27.439Z,96.76
2019-05-13T22:49:58.965Z,96.79
2019-05-13T22:52:31.279Z,96.94
2019-05-13T22:55:02.881Z,96.83
2019-05-13T22:57:34.780Z,97.13
2019-05-13T23:00:06.929Z,97.24
2019-05-13T23:02:42.194Z,97.27
2019-05-13T23:05:13.184Z,97.32
2019-05-13T23:07:44.710Z,97.54
2019-05-13T23:10:16.191Z,97.71
2019-05-13T23:12:47.894Z,97.77
2019-05-13T23:15:21.172Z,97.82
2019-05-13T23:17:52.390Z,98.01
2019-05-13T23:20:23.690Z,97.97
2019-05-13T23:22:55.057Z,98.07
2019-05-13T23:25:26.389Z,98.28
2019-05-13T23:27:57.862Z,98.43
2019-05-13T23:30:31.249Z,98.59
2019-05-13T23:33:02.576Z,98.81
2019-05-13T23:35:34.069Z,98.38
2019-05-13T23:38:06.126Z,98.42
2019-05-13T23:40:38.316Z,98.51
2019-05-13T23:43:11.322Z,98.65
2019-05-13T23:45:42.856Z,98.54
2019-05-13T23:48:14.263Z,98.75
2019-05-13T23:50:45.654Z,98.83
2019-05-13T23:53:17.067Z,98.89
2019-05-13T23:55:48.365Z,99.12
2019-05-13T23:58:21.646Z,99.29
